Time;durP1;ratioP1;P1;durP2;ratioP2;P2;SDS_P1;SDS_P2;PMS_P1;PMS_P2;Temp;Humidity;BMP_temperature;BMP_pressure;BME280_temperature;BME280_humidity;BME280_pressure;Samples;Min_cycle;Max_cycle;Signal;HPM_P1;HPM_P2
2023/04/03 00:01:34;;;;;;;6.87;3.67;;;4.90;74.60;;;;;;4992160;28;20191;-71
2023/04/03 00:04:00;;;;;;;6.67;4.50;;;4.90;74.50;;;;;;4989878;28;20222;-72
2023/04/03 00:06:26;;;;;;;6.10;4.33;;;4.90;74.50;;;;;;4993800;28;20445;-73
2023/04/03 00:08:52;;;;;;;6.50;3.90;;;4.90;74.50;;;;;;4991558;28;20266;-71
2023/04/03 00:11:18;;;;;;;5.83;3.67;;;4.80;74.20;;;;;;4991830;28;20845;-72
2023/04/03 00:13:44;;;;;;;7.80;4.50;;;4.80;74.30;;;;;;4991642;28;20465;-72
2023/04/03 00:16:11;;;;;;;5.90;4.57;;;4.80;74.50;;;;;;4991581;28;20426;-72
2023/04/03 00:18:38;;;;;;;7.00;4.90;;;4.80;74.30;;;;;;4989591;28;20429;-72
2023/04/03 00:21:04;;;;;;;8.70;4.83;;;4.80;74.30;;;;;;4990165;28;20536;-71
2023/04/03 00:23:30;;;;;;;8.60;4.30;;;4.80;74.30;;;;;;4988851;28;20488;-70
2023/04/03 00:25:56;;;;;;;8.87;4.40;;;4.80;74.30;;;;;;4992511;28;20426;-71
2023/04/03 00:28:21;;;;;;;6.67;4.23;;;4.80;74.50;;;;;;4995061;28;20552;-70
2023/04/03 00:30:49;;;;;;;5.23;3.40;;;4.90;74.50;;;;;;4993526;28;20633;-71
2023/04/03 00:33:15;;;;;;;7.03;4.40;;;4.90;74.30;;;;;;4990284;28;20354;-71
2023/04/03 00:35:41;;;;;;;8.53;4.43;;;4.90;74.20;;;;;;4992547;28;20452;-71
2023/04/03 00:38:07;;;;;;;8.77;4.07;;;4.90;74.30;;;;;;4996208;28;20430;-71
2023/04/03 00:40:39;;;;;;;7.23;4.57;;;4.90;74.20;;;;;;4991055;28;20297;-72
2023/04/03 00:43:22;;;;;;;7.10;3.80;;;4.80;74.00;;;;;;4986201;28;20478;-70
2023/04/03 00:45:50;;;;;;;7.73;4.00;;;4.80;74.20;;;;;;4986975;28;20417;-70
2023/04/03 00:48:41;;;;;;;6.80;4.30;;;4.90;74.30;;;;;;4996419;28;20430;-71
2023/04/03 00:51:12;;;;;;;7.60;3.90;;;4.90;74.20;;;;;;4998543;28;20421;-70
2023/04/03 00:53:51;;;;;;;7.63;4.03;;;4.80;74.30;;;;;;4986172;28;20539;-71
2023/04/03 00:56:19;;;;;;;6.30;3.70;;;4.80;74.30;;;;;;4992438;28;20426;-71
2023/04/03 00:58:54;;;;;;;6.00;4.00;;;4.80;74.60;;;;;;4991059;28;20425;-72
2023/04/03 01:01:24;;;;;;;7.67;4.10;;;4.80;74.50;;;;;;4992381;28;20428;-72
2023/04/03 01:03:50;;;;;;;15.23;4.60;;;4.80;74.30;;;;;;4987964;28;20473;-72
2023/04/03 01:06:19;;;;;;;5.60;3.97;;;4.80;74.50;;;;;;4989495;28;20457;-71
2023/04/03 01:08:46;;;;;;;6.50;4.20;;;4.80;74.50;;;;;;4989034;28;20422;-70
2023/04/03 01:11:12;;;;;;;8.53;3.73;;;4.80;74.60;;;;;;4991567;28;20438;-72
2023/04/03 01:13:38;;;;;;;7.10;3.80;;;4.80;74.60;;;;;;4982894;28;21002;-71
2023/04/03 01:16:05;;;;;;;6.53;3.90;;;4.80;74.80;;;;;;4990702;28;20222;-70
2023/04/03 01:18:33;;;;;;;6.80;4.00;;;4.80;74.60;;;;;;4995513;28;20195;-73
2023/04/03 01:21:24;;;;;;;6.83;4.40;;;4.70;74.60;;;;;;4998455;28;20460;-70
2023/04/03 01:24:09;;;;;;;7.20;3.87;;;4.70;74.80;;;;;;4989542;28;20827;-71
2023/04/03 01:26:35;;;;;;;6.63;3.90;;;4.60;75.20;;;;;;4994845;28;20436;-73
2023/04/03 01:29:01;;;;;;;4.87;3.47;;;4.50;75.40;;;;;;4997682;28;20421;-72
2023/04/03 01:31:30;;;;;;;9.50;3.80;;;4.60;75.40;;;;;;4992072;28;20185;-72
2023/04/03 01:33:56;;;;;;;7.33;4.13;;;4.60;75.40;;;;;;4994811;28;20744;-73
2023/04/03 01:36:24;;;;;;;8.67;4.70;;;4.60;74.90;;;;;;4996268;28;20441;-73
2023/04/03 01:38:51;;;;;;;6.97;3.50;;;4.60;75.10;;;;;;4997422;28;20182;-72
2023/04/03 01:41:17;;;;;;;5.40;3.50;;;4.60;75.10;;;;;;4996948;28;20440;-73
2023/04/03 01:43:43;;;;;;;5.03;3.87;;;4.60;75.10;;;;;;4993066;28;20485;-73
2023/04/03 01:46:09;;;;;;;7.83;4.27;;;4.60;75.10;;;;;;4997410;28;20434;-73
2023/04/03 01:48:34;;;;;;;5.67;4.43;;;4.60;74.90;;;;;;5000569;28;20492;-73
2023/04/03 01:51:00;;;;;;;6.60;4.00;;;4.50;74.90;;;;;;4996929;28;20193;-71
2023/04/03 01:53:26;;;;;;;6.33;4.20;;;4.60;75.20;;;;;;4992657;28;20217;-72
2023/04/03 01:55:51;;;;;;;6.93;3.67;;;4.60;75.10;;;;;;4997024;28;20534;-72
2023/04/03 01:58:17;;;;;;;6.17;3.50;;;4.60;74.90;;;;;;5000151;28;20178;-72
2023/04/03 02:00:42;;;;;;;6.70;4.33;;;4.60;74.80;;;;;;4993130;28;20186;-71
2023/04/03 02:03:08;;;;;;;8.20;3.60;;;4.60;75.10;;;;;;4991524;28;20210;-73
2023/04/03 02:05:34;;;;;;;5.93;3.80;;;4.60;74.80;;;;;;4994413;28;20790;-73
2023/04/03 02:08:00;;;;;;;7.77;3.83;;;4.50;74.60;;;;;;4999694;28;20182;-73
2023/04/03 02:10:26;;;;;;;8.27;4.80;;;4.50;74.90;;;;;;4993648;28;20437;-73
2023/04/03 02:12:51;;;;;;;9.47;4.33;;;4.50;74.90;;;;;;4995247;28;20220;-71
2023/04/03 02:15:17;;;;;;;5.30;4.10;;;4.50;74.60;;;;;;4996504;28;20190;-71
2023/04/03 02:17:43;;;;;;;9.90;3.90;;;4.50;74.30;;;;;;4996546;28;20202;-72
2023/04/03 02:20:09;;;;;;;5.87;3.50;;;4.50;73.90;;;;;;4997423;28;20524;-73
2023/04/03 02:22:35;;;;;;;5.53;3.67;;;4.40;74.50;;;;;;4994714;28;20533;-71
2023/04/03 02:25:01;;;;;;;7.73;4.43;;;4.50;74.60;;;;;;4994667;28;20483;-73
2023/04/03 02:27:27;;;;;;;5.00;4.10;;;4.50;74.50;;;;;;4997031;28;20414;-73
2023/04/03 02:29:53;;;;;;;7.13;3.60;;;4.50;74.00;;;;;;4992441;28;20457;-73
2023/04/03 02:32:18;;;;;;;5.03;3.80;;;4.40;74.30;;;;;;4995516;28;20186;-73
2023/04/03 02:34:44;;;;;;;6.93;3.87;;;4.40;73.90;;;;;;4991377;28;20233;-73
2023/04/03 02:37:10;;;;;;;9.10;4.60;;;4.50;73.30;;;;;;4995827;28;20194;-72
2023/04/03 02:39:35;;;;;;;10.07;4.30;;;4.50;73.30;;;;;;4996105;28;20195;-72
2023/04/03 02:42:01;;;;;;;4.90;3.60;;;4.60;73.60;;;;;;4996247;28;20190;-73
2023/04/03 02:44:27;;;;;;;6.13;3.80;;;4.60;73.90;;;;;;4991424;28;20725;-72
2023/04/03 02:46:55;;;;;;;5.30;3.77;;;4.60;73.70;;;;;;4995718;28;20210;-73
2023/04/03 02:49:21;;;;;;;6.40;4.20;;;4.70;73.60;;;;;;4993968;28;20552;-71
2023/04/03 02:51:47;;;;;;;5.33;3.83;;;4.70;73.30;;;;;;4989265;28;20429;-73
2023/04/03 02:54:13;;;;;;;5.13;3.97;;;4.60;73.00;;;;;;4990950;28;20214;-73
2023/04/03 02:56:38;;;;;;;5.50;3.67;;;4.60;73.00;;;;;;4994884;28;20432;-72
2023/04/03 02:59:05;;;;;;;5.90;4.00;;;4.70;73.00;;;;;;4993522;28;20190;-71
2023/04/03 03:01:32;;;;;;;10.00;4.10;;;4.60;72.40;;;;;;4991614;28;20186;-72
2023/04/03 03:03:59;;;;;;;7.03;4.27;;;4.50;72.60;;;;;;4991419;28;20485;-71
2023/04/03 03:06:24;;;;;;;6.40;4.07;;;4.50;72.40;;;;;;4997451;28;20822;-73
2023/04/03 03:08:50;;;;;;;7.63;4.13;;;4.50;72.70;;;;;;4994166;28;20419;-71
2023/04/03 03:11:16;;;;;;;7.00;3.90;;;4.50;72.70;;;;;;4994193;28;21087;-72
2023/04/03 03:13:41;;;;;;;8.33;4.00;;;4.50;72.60;;;;;;4994529;28;20289;-72
2023/04/03 03:16:07;;;;;;;13.60;4.10;;;4.50;72.40;;;;;;4993070;28;20186;-73
2023/04/03 03:18:33;;;;;;;5.67;3.73;;;4.40;72.90;;;;;;4996911;28;20245;-73
2023/04/03 03:21:00;;;;;;;8.20;3.80;;;4.40;73.00;;;;;;4992485;28;20422;-72
2023/04/03 03:23:28;;;;;;;5.90;3.77;;;4.50;73.20;;;;;;4988495;28;20572;-71
2023/04/03 03:25:58;;;;;;;5.77;3.97;;;4.50;72.60;;;;;;4993692;28;20418;-74
2023/04/03 03:28:24;;;;;;;7.50;3.83;;;4.60;72.40;;;;;;4994928;28;20426;-73
2023/04/03 03:30:50;;;;;;;6.97;4.10;;;4.70;72.30;;;;;;4990583;28;20418;-73
2023/04/03 03:33:17;;;;;;;5.60;4.10;;;4.60;72.30;;;;;;4987405;28;20466;-73
2023/04/03 03:35:43;;;;;;;6.50;3.93;;;4.60;72.40;;;;;;4988284;28;20237;-73
2023/04/03 03:38:08;;;;;;;8.37;4.73;;;4.70;72.60;;;;;;4995103;28;20426;-74
2023/04/03 03:40:34;;;;;;;4.47;3.30;;;4.80;72.60;;;;;;4989831;28;20414;-73
2023/04/03 03:42:59;;;;;;;6.77;4.20;;;4.70;72.00;;;;;;4989193;28;20211;-73
2023/04/03 03:45:25;;;;;;;7.57;4.10;;;4.70;72.30;;;;;;4994420;28;20713;-73
2023/04/03 03:47:51;;;;;;;6.83;4.10;;;4.70;72.60;;;;;;4990671;28;20183;-73
2023/04/03 03:50:16;;;;;;;6.03;3.93;;;4.80;72.40;;;;;;4996013;28;20186;-73
2023/04/03 03:52:42;;;;;;;7.67;4.27;;;4.80;72.30;;;;;;4997861;28;21057;-70
2023/04/03 03:55:08;;;;;;;5.43;3.87;;;4.80;72.10;;;;;;4991150;28;20274;-72
2023/04/03 03:57:33;;;;;;;5.53;3.27;;;4.80;72.10;;;;;;4991356;28;20202;-75
2023/04/03 03:59:59;;;;;;;8.00;4.50;;;4.80;72.30;;;;;;4991926;28;20197;-74
2023/04/03 04:02:24;;;;;;;4.93;3.40;;;4.90;71.80;;;;;;4990774;28;21728;-72
2023/04/03 04:04:50;;;;;;;7.83;4.67;;;4.90;71.30;;;;;;4986498;28;20302;-73
2023/04/03 04:07:16;;;;;;;4.83;3.57;;;4.90;71.40;;;;;;4990570;28;20210;-74
2023/04/03 04:09:41;;;;;;;6.20;3.80;;;4.80;71.30;;;;;;4990515;28;20183;-71
2023/04/03 04:12:07;;;;;;;5.60;4.00;;;4.80;71.00;;;;;;4991373;28;20179;-74
2023/04/03 04:14:32;;;;;;;6.00;3.50;;;4.80;71.00;;;;;;4989488;28;20685;-72
2023/04/03 04:16:58;;;;;;;5.60;3.57;;;4.80;71.10;;;;;;4990859;28;20525;-74
2023/04/03 04:19:23;;;;;;;10.70;4.40;;;4.70;71.10;;;;;;4991374;28;20209;-72
2023/04/03 04:21:50;;;;;;;9.03;5.33;;;4.70;71.10;;;;;;4988609;28;20205;-72
2023/04/03 04:24:15;;;;;;;6.40;3.87;;;4.70;71.30;;;;;;4988354;28;20272;-74
2023/04/03 04:26:41;;;;;;;6.77;3.37;;;4.70;71.10;;;;;;4987948;28;20433;-72
2023/04/03 04:29:08;;;;;;;7.53;4.27;;;4.80;71.10;;;;;;4990314;28;20551;-72
2023/04/03 04:31:34;;;;;;;6.07;4.30;;;4.80;71.00;;;;;;4987092;28;20237;-72
2023/04/03 04:33:59;;;;;;;4.90;3.50;;;4.80;70.80;;;;;;4990380;28;20465;-72
2023/04/03 04:36:25;;;;;;;5.90;4.00;;;4.70;70.80;;;;;;4989736;28;20193;-72
2023/04/03 04:38:52;;;;;;;9.10;4.03;;;4.70;71.00;;;;;;4991767;28;20186;-71
2023/04/03 04:41:20;;;;;;;6.60;4.30;;;4.80;70.50;;;;;;4991301;28;20916;-72
2023/04/03 04:43:46;;;;;;;5.87;3.67;;;4.80;70.70;;;;;;4986742;28;20516;-72
2023/04/03 04:46:12;;;;;;;6.97;3.93;;;4.80;70.70;;;;;;4990650;28;20452;-70
2023/04/03 04:48:38;;;;;;;9.70;4.30;;;4.80;71.00;;;;;;4994068;28;20254;-72
2023/04/03 04:51:04;;;;;;;6.47;3.57;;;4.70;70.70;;;;;;4992440;28;20269;-72
2023/04/03 04:53:29;;;;;;;7.97;4.00;;;4.70;70.80;;;;;;4986756;28;20267;-71
2023/04/03 04:55:55;;;;;;;7.33;4.10;;;4.70;70.80;;;;;;4990286;28;20430;-72
2023/04/03 04:58:21;;;;;;;6.57;4.23;;;4.70;71.00;;;;;;4994840;28;20183;-72
2023/04/03 05:00:46;;;;;;;6.50;3.70;;;4.70;71.00;;;;;;4990886;28;20583;-72
2023/04/03 05:03:12;;;;;;;6.07;3.77;;;4.70;71.00;;;;;;4988538;28;20314;-72
2023/04/03 05:05:38;;;;;;;6.73;3.60;;;4.70;71.30;;;;;;4988883;28;20210;-72
2023/04/03 05:08:04;;;;;;;5.33;3.43;;;4.70;71.10;;;;;;4992381;28;20508;-72
2023/04/03 05:10:30;;;;;;;5.50;3.97;;;4.70;71.30;;;;;;4992300;28;20884;-72
2023/04/03 05:12:56;;;;;;;5.40;4.20;;;4.80;71.00;;;;;;4987191;28;20509;-72
2023/04/03 05:15:22;;;;;;;5.27;3.77;;;4.80;71.10;;;;;;4990676;28;20928;-72
2023/04/03 05:17:48;;;;;;;6.80;4.80;;;4.90;70.80;;;;;;4990868;28;20816;-71
2023/04/03 05:20:13;;;;;;;8.10;3.60;;;4.90;70.40;;;;;;4991664;28;20186;-71
2023/04/03 05:22:39;;;;;;;6.43;3.50;;;4.90;70.10;;;;;;4990199;28;20186;-71
2023/04/03 05:25:05;;;;;;;5.67;3.53;;;4.90;69.90;;;;;;4993010;28;20257;-72
2023/04/03 05:27:31;;;;;;;8.37;4.13;;;4.80;69.90;;;;;;4992222;28;20269;-72
2023/04/03 05:29:57;;;;;;;5.27;3.63;;;4.80;69.70;;;;;;4987680;28;20517;-70
2023/04/03 05:32:24;;;;;;;6.20;4.00;;;4.80;70.20;;;;;;4989959;28;20421;-72
2023/04/03 05:34:51;;;;;;;5.63;3.60;;;4.70;70.50;;;;;;4986975;28;20961;-72
2023/04/03 05:37:17;;;;;;;5.33;3.20;;;4.60;70.70;;;;;;4990050;28;20795;-71
2023/04/03 05:39:42;;;;;;;6.90;3.93;;;4.60;71.00;;;;;;4989235;28;20438;-71
2023/04/03 05:42:08;;;;;;;9.13;3.80;;;4.60;71.10;;;;;;4989166;28;20733;-72
2023/04/03 05:44:33;;;;;;;5.40;4.53;;;4.70;71.10;;;;;;4989744;28;20221;-71
2023/04/03 05:46:59;;;;;;;7.03;5.30;;;4.70;71.30;;;;;;4995489;28;20666;-72
2023/04/03 05:49:25;;;;;;;7.90;4.03;;;4.60;71.30;;;;;;4988872;28;20197;-71
2023/04/03 05:51:51;;;;;;;6.53;3.90;;;4.60;71.70;;;;;;4990861;28;20426;-74
2023/04/03 05:54:30;;;;;;;7.33;3.57;;;4.50;72.00;;;;;;4988054;28;20238;-72
2023/04/03 05:56:55;;;;;;;9.00;4.00;;;4.60;72.70;;;;;;4992812;28;20428;-73
2023/04/03 05:59:21;;;;;;;11.70;4.20;;;4.60;72.10;;;;;;4991166;28;20999;-73
2023/04/03 06:01:47;;;;;;;7.70;3.70;;;4.50;71.70;;;;;;4991309;28;20187;-74
2023/04/03 06:04:13;;;;;;;7.50;4.53;;;4.60;72.00;;;;;;4985528;28;20492;-73
2023/04/03 06:06:47;;;;;;;3.70;3.50;;;4.60;71.70;;;;;;4999474;28;20447;-73
2023/04/03 06:09:16;;;;;;;8.20;4.97;;;4.60;72.00;;;;;;4996881;28;20852;-72
2023/04/03 06:11:42;;;;;;;6.13;3.90;;;4.70;71.70;;;;;;4993596;28;20422;-72
2023/04/03 06:14:08;;;;;;;5.20;3.97;;;4.70;71.40;;;;;;4987479;28;20469;-73
2023/04/03 06:16:34;;;;;;;5.40;3.63;;;4.80;71.70;;;;;;4995460;28;20190;-74
2023/04/03 06:19:00;;;;;;;4.47;3.47;;;4.80;71.70;;;;;;4994204;28;20460;-73
2023/04/03 06:21:26;;;;;;;6.03;3.80;;;4.70;71.40;;;;;;5000587;28;20528;-73
2023/04/03 06:23:52;;;;;;;8.40;3.60;;;4.70;71.80;;;;;;5002033;28;20477;-73
2023/04/03 06:26:17;;;;;;;9.50;3.40;;;4.80;71.80;;;;;;5003421;28;20425;-71
2023/04/03 06:28:43;;;;;;;5.90;3.80;;;4.70;71.30;;;;;;4994201;28;20218;-72
2023/04/03 06:31:09;;;;;;;5.50;3.43;;;4.60;71.80;;;;;;4993341;28;20282;-72
2023/04/03 06:33:34;;;;;;;6.03;3.63;;;4.60;72.00;;;;;;4989890;28;20225;-73
2023/04/03 06:36:03;;;;;;;12.07;3.97;;;4.70;72.10;;;;;;4991412;28;20528;-73
2023/04/03 06:38:28;;;;;;;5.40;3.80;;;4.60;71.70;;;;;;4992185;28;20652;-73
2023/04/03 06:40:54;;;;;;;9.23;3.93;;;4.50;72.10;;;;;;4992821;28;20418;-73
2023/04/03 06:43:20;;;;;;;9.70;3.67;;;4.30;72.40;;;;;;4989204;28;20233;-74
2023/04/03 06:45:46;;;;;;;4.83;3.60;;;4.40;72.60;;;;;;4992851;28;20183;-73
2023/04/03 06:48:13;;;;;;;7.67;4.10;;;4.50;72.70;;;;;;4991617;28;20440;-73
2023/04/03 06:50:38;;;;;;;7.27;4.40;;;4.50;72.30;;;;;;4992471;28;20190;-72
2023/04/03 06:53:04;;;;;;;8.47;4.17;;;4.60;72.40;;;;;;4990327;28;20453;-73
2023/04/03 06:55:30;;;;;;;6.70;3.23;;;4.70;72.40;;;;;;4994133;28;20620;-73
2023/04/03 06:57:55;;;;;;;9.80;4.63;;;4.80;72.40;;;;;;4991176;28;20190;-73
2023/04/03 07:00:21;;;;;;;8.60;4.47;;;4.80;72.40;;;;;;4992753;28;20441;-73
2023/04/03 07:02:47;;;;;;;6.23;3.90;;;4.80;72.30;;;;;;4989445;28;20552;-73
2023/04/03 07:05:13;;;;;;;5.33;3.57;;;4.70;72.10;;;;;;4989043;28;20229;-73
2023/04/03 07:07:38;;;;;;;5.70;3.90;;;4.60;72.30;;;;;;4997320;28;20179;-73
2023/04/03 07:10:06;;;;;;;5.67;3.70;;;4.70;72.60;;;;;;4989123;28;20263;-73
2023/04/03 07:12:31;;;;;;;6.00;3.83;;;4.80;72.40;;;;;;4986992;28;20198;-73
2023/04/03 07:15:00;;;;;;;3.70;3.17;;;4.80;72.30;;;;;;5002595;28;20446;-73
2023/04/03 07:17:26;;;;;;;6.37;3.43;;;4.80;72.30;;;;;;4994278;28;20259;-74
2023/04/03 07:19:52;;;;;;;5.40;3.67;;;4.80;72.10;;;;;;4992175;28;20426;-73
2023/04/03 07:22:17;;;;;;;4.10;3.03;;;4.90;72.00;;;;;;4992190;28;20417;-73
2023/04/03 07:24:43;;;;;;;6.97;4.10;;;4.80;71.80;;;;;;4987572;28;20709;-72
2023/04/03 07:27:09;;;;;;;8.03;4.33;;;4.70;72.30;;;;;;4991965;28;20186;-73
2023/04/03 07:29:35;;;;;;;5.57;4.07;;;4.80;72.40;;;;;;4992389;28;20421;-73
2023/04/03 07:32:02;;;;;;;7.67;3.30;;;4.90;72.30;;;;;;4991901;28;20515;-73
2023/04/03 07:34:27;;;;;;;6.33;4.10;;;5.10;72.30;;;;;;4988447;28;20548;-73
2023/04/03 07:36:53;;;;;;;7.13;4.43;;;5.20;71.70;;;;;;4991636;28;20508;-73
2023/04/03 07:39:19;;;;;;;6.90;4.00;;;5.20;71.60;;;;;;4989371;28;20201;-73
2023/04/03 07:41:44;;;;;;;7.60;4.17;;;5.00;71.70;;;;;;4988942;28;20550;-73
2023/04/03 07:44:10;;;;;;;6.13;3.73;;;5.10;72.10;;;;;;4986826;28;20249;-73
2023/04/03 07:46:36;;;;;;;5.17;3.90;;;5.20;71.80;;;;;;4990385;28;20197;-73
2023/04/03 07:49:02;;;;;;;7.77;3.97;;;5.10;71.70;;;;;;4986813;28;20179;-73
2023/04/03 07:51:29;;;;;;;8.50;4.37;;;5.10;72.30;;;;;;4994189;28;20818;-73
2023/04/03 07:53:55;;;;;;;5.10;3.80;;;5.30;72.00;;;;;;4984457;28;20233;-74
2023/04/03 07:56:21;;;;;;;4.87;3.37;;;5.40;71.70;;;;;;4991772;28;20425;-73
2023/04/03 07:58:46;;;;;;;6.00;3.63;;;5.40;71.40;;;;;;4991147;28;20478;-74
2023/04/03 08:01:12;;;;;;;9.50;4.17;;;5.60;71.30;;;;;;4990496;28;20437;-74
2023/04/03 08:03:39;;;;;;;5.00;3.43;;;5.70;71.10;;;;;;4987494;28;20594;-73
2023/04/03 08:06:07;;;;;;;9.10;3.97;;;5.80;71.10;;;;;;4988402;28;20277;-73
2023/04/03 08:08:34;;;;;;;7.57;4.10;;;5.80;71.10;;;;;;4984742;28;20456;-73
2023/04/03 08:11:02;;;;;;;4.90;3.63;;;5.80;70.80;;;;;;4992297;28;20444;-73
2023/04/03 08:13:28;;;;;;;6.60;3.47;;;5.80;70.70;;;;;;4990520;28;20460;-73
2023/04/03 08:15:56;;;;;;;7.00;3.50;;;5.80;70.40;;;;;;4990005;28;20430;-72
2023/04/03 08:18:24;;;;;;;7.90;4.23;;;5.60;70.40;;;;;;4994593;28;20441;-73
2023/04/03 08:20:50;;;;;;;6.30;4.37;;;5.30;71.80;;;;;;4991250;28;20936;-73
2023/04/03 08:23:16;;;;;;;5.13;3.87;;;5.40;72.00;;;;;;4986983;28;20554;-73
2023/04/03 08:25:43;;;;;;;7.60;4.17;;;5.50;72.10;;;;;;4992182;28;20429;-73
2023/04/03 08:28:09;;;;;;;9.20;5.00;;;5.40;71.80;;;;;;4991867;28;20465;-72
2023/04/03 08:30:35;;;;;;;9.40;4.53;;;5.60;71.70;;;;;;4988829;28;20509;-73
2023/04/03 08:33:02;;;;;;;6.10;3.80;;;5.80;71.60;;;;;;4989168;28;20462;-73
2023/04/03 08:35:28;;;;;;;6.13;3.80;;;6.00;71.10;;;;;;4992849;28;21096;-73
2023/04/03 08:37:53;;;;;;;6.90;4.03;;;6.00;70.70;;;;;;4994397;28;20418;-72
2023/04/03 08:40:19;;;;;;;7.13;4.50;;;5.90;71.00;;;;;;4991463;28;20429;-74
2023/04/03 08:42:57;;;;;;;7.10;4.10;;;5.80;71.30;;;;;;4988477;28;20213;-72
2023/04/03 08:45:46;;;;;;;8.23;4.47;;;5.80;71.60;;;;;;4990250;28;20217;-73
2023/04/03 08:48:15;;;;;;;10.23;5.33;;;6.00;71.10;;;;;;4991070;28;20410;-74
2023/04/03 08:50:47;;;;;;;6.40;4.33;;;6.00;70.80;;;;;;4991712;28;20464;-73
2023/04/03 08:53:17;;;;;;;11.37;4.60;;;5.90;71.30;;;;;;4986894;28;20569;-73
2023/04/03 08:55:50;;;;;;;7.07;4.73;;;5.90;71.10;;;;;;4990545;28;20452;-73
2023/04/03 08:58:19;;;;;;;8.07;4.40;;;5.90;71.40;;;;;;4990511;28;20420;-73
2023/04/03 09:01:04;;;;;;;6.50;4.13;;;5.80;71.30;;;;;;4990830;28;20413;-73
2023/04/03 09:03:32;;;;;;;8.50;4.40;;;5.90;71.60;;;;;;4985514;28;20998;-73
2023/04/03 09:06:15;;;;;;;8.97;4.20;;;5.90;71.30;;;;;;4988747;28;20442;-73
2023/04/03 09:09:16;;;;;;;8.20;4.43;;;6.00;70.50;;;;;;4982286;28;20425;-73
2023/04/03 09:12:09;;;;;;;5.70;3.83;;;6.10;70.70;;;;;;4989467;28;20422;-74
2023/04/03 09:15:01;;;;;;;16.20;4.20;;;5.80;70.80;;;;;;4986689;28;20461;-72
2023/04/03 09:17:38;;;;;;;7.50;4.20;;;6.00;71.10;;;;;;4987247;28;20413;-73
2023/04/03 09:20:07;;;;;;;11.63;4.60;;;6.40;70.20;;;;;;4985595;28;20520;-73
2023/04/03 09:22:37;;;;;;;7.10;4.50;;;6.40;69.20;;;;;;4990488;28;20433;-72
2023/04/03 09:25:18;;;;;;;7.33;4.23;;;6.40;69.40;;;;;;4988767;28;20568;-74
2023/04/03 09:27:44;;;;;;;6.70;3.90;;;6.40;68.80;;;;;;4984579;28;20488;-73
2023/04/03 09:30:23;;;;;;;6.00;4.30;;;6.40;68.90;;;;;;4989700;28;20481;-73
2023/04/03 09:32:52;;;;;;;5.23;3.77;;;6.30;68.90;;;;;;4988557;28;20469;-72
2023/04/03 09:35:23;;;;;;;5.53;4.00;;;6.10;68.50;;;;;;4991107;28;20445;-73
2023/04/03 09:37:51;;;;;;;6.73;3.90;;;6.20;69.20;;;;;;4988256;28;20463;-72
2023/04/03 09:40:26;;;;;;;7.57;4.10;;;6.10;69.80;;;;;;4993273;28;20445;-71
2023/04/03 09:42:53;;;;;;;6.70;4.30;;;6.20;69.50;;;;;;4990206;28;20469;-74
2023/04/03 09:45:24;;;;;;;5.87;3.17;;;6.20;69.10;;;;;;4988107;28;20965;-71
2023/04/03 09:48:08;;;;;;;8.87;3.90;;;6.30;68.90;;;;;;4993934;28;20437;-73
2023/04/03 09:50:35;;;;;;;7.50;3.90;;;6.30;68.30;;;;;;4995744;28;20925;-73
2023/04/03 09:53:27;;;;;;;6.47;3.97;;;6.30;68.30;;;;;;4991800;28;20497;-72
2023/04/03 09:55:53;;;;;;;8.40;4.10;;;6.40;67.60;;;;;;4992440;28;20557;-73
2023/04/03 09:58:37;;;;;;;6.60;3.70;;;6.40;67.30;;;;;;4997386;28;20426;-72
2023/04/03 10:01:03;;;;;;;6.80;4.17;;;6.40;67.50;;;;;;4994079;28;20265;-71
2023/04/03 10:03:35;;;;;;;6.60;4.00;;;6.00;68.00;;;;;;4987288;28;20453;-72
2023/04/03 10:06:02;;;;;;;5.70;3.47;;;6.00;69.10;;;;;;4989035;28;20457;-71
2023/04/03 10:08:34;;;;;;;6.97;3.90;;;6.10;69.20;;;;;;4995485;28;20431;-73
2023/04/03 10:11:18;;;;;;;9.50;4.00;;;6.30;69.20;;;;;;4990143;28;20438;-72
2023/04/03 10:13:56;;;;;;;5.93;3.70;;;6.40;68.60;;;;;;4988315;28;20527;-73
2023/04/03 10:16:27;;;;;;;7.90;3.77;;;6.50;68.00;;;;;;4992991;28;20808;-72
2023/04/03 10:18:55;;;;;;;6.47;3.10;;;6.50;67.50;;;;;;4993411;28;20429;-71
2023/04/03 10:21:46;;;;;;;4.47;3.50;;;6.50;67.00;;;;;;4994558;28;20425;-73
2023/04/03 10:24:25;;;;;;;7.00;3.60;;;6.60;66.90;;;;;;4986473;28;20540;-72
2023/04/03 10:26:56;;;;;;;5.20;3.50;;;6.70;65.60;;;;;;4992840;28;20440;-72
2023/04/03 10:29:46;;;;;;;5.33;3.47;;;6.70;65.70;;;;;;4993152;28;20917;-73
2023/04/03 10:32:40;;;;;;;4.43;3.67;;;6.90;65.80;;;;;;4991306;28;20418;-73
2023/04/03 10:35:25;;;;;;;10.67;3.93;;;7.00;65.40;;;;;;4995542;28;20426;-72
2023/04/03 10:38:17;;;;;;;4.23;3.33;;;6.80;65.30;;;;;;4987023;28;20521;-72
2023/04/03 10:41:02;;;;;;;5.00;3.30;;;6.70;65.40;;;;;;4992953;28;21270;-71
2023/04/03 10:43:56;;;;;;;12.63;4.63;;;6.50;65.80;;;;;;4992115;28;20564;-72
2023/04/03 10:46:35;;;;;;;6.67;3.50;;;6.40;66.60;;;;;;4995841;28;20426;-72
2023/04/03 10:49:07;;;;;;;8.87;4.57;;;6.30;66.90;;;;;;4999354;28;20433;-72
2023/04/03 10:51:45;;;;;;;8.23;3.50;;;6.40;67.20;;;;;;4995414;28;20421;-71
2023/04/03 10:54:22;;;;;;;6.10;3.20;;;6.50;66.90;;;;;;4991292;28;20469;-70
2023/04/03 10:56:52;;;;;;;4.37;3.47;;;6.60;66.30;;;;;;4991598;28;20433;-72
2023/04/03 10:59:32;;;;;;;8.13;3.70;;;6.80;65.70;;;;;;4993106;28;21142;-72
2023/04/03 11:02:18;;;;;;;6.13;3.30;;;6.80;64.20;;;;;;4993307;28;20429;-71
2023/04/03 11:04:48;;;;;;;4.50;2.80;;;6.90;64.40;;;;;;4986375;28;20481;-73
2023/04/03 11:07:23;;;;;;;6.97;3.80;;;6.80;63.90;;;;;;4991937;28;20439;-70
2023/04/03 11:09:53;;;;;;;8.60;3.23;;;6.70;64.20;;;;;;4993134;28;20853;-73
2023/04/03 11:12:46;;;;;;;4.83;2.73;;;6.60;64.10;;;;;;4990198;28;20799;-73
2023/04/03 11:15:30;;;;;;;6.83;3.10;;;6.70;64.10;;;;;;4983625;28;20437;-71
2023/04/03 11:18:23;;;;;;;8.10;3.47;;;6.80;62.60;;;;;;4994112;28;20945;-71
2023/04/03 11:21:17;;;;;;;4.50;2.70;;;7.00;62.20;;;;;;4988534;28;20495;-71
2023/04/03 11:23:45;;;;;;;6.70;3.00;;;7.10;61.00;;;;;;4986748;28;20478;-72
2023/04/03 11:26:24;;;;;;;4.93;2.87;;;7.00;60.90;;;;;;4992699;28;20425;-69
2023/04/03 11:29:01;;;;;;;4.60;3.00;;;7.00;60.30;;;;;;4986344;28;20457;-74
2023/04/03 11:31:36;;;;;;;6.03;3.20;;;6.80;60.30;;;;;;4992772;28;20468;-71
2023/04/03 11:34:34;;;;;;;6.13;2.90;;;6.70;60.90;;;;;;4988592;28;20540;-71
2023/04/03 11:37:01;;;;;;;4.43;2.93;;;6.50;62.20;;;;;;4989099;28;20452;-71
2023/04/03 11:39:37;;;;;;;6.10;3.03;;;6.70;62.90;;;;;;4991433;28;20460;-74
2023/04/03 11:42:38;;;;;;;4.57;3.10;;;6.60;62.00;;;;;;4991936;28;20925;-74
2023/04/03 11:45:21;;;;;;;4.80;2.90;;;6.60;63.10;;;;;;4989920;28;20938;-70
2023/04/03 11:47:52;;;;;;;5.50;2.73;;;6.70;62.60;;;;;;4991361;28;20940;-72
2023/04/03 11:50:30;;;;;;;9.30;2.93;;;6.70;62.90;;;;;;4989959;28;20536;-71
2023/04/03 11:53:07;;;;;;;5.60;3.30;;;6.80;62.20;;;;;;4989007;28;20943;-72
2023/04/03 11:55:32;;;;;;;5.10;3.00;;;6.80;61.20;;;;;;4988989;28;20429;-72
2023/04/03 11:57:58;;;;;;;3.73;2.47;;;6.70;61.00;;;;;;4990015;28;20433;-73
2023/04/03 12:00:59;;;;;;;7.37;2.60;;;6.80;61.30;;;;;;4994204;28;20236;-74
2023/04/03 12:06:14;;;;;;;6.37;2.80;;;7.10;59.50;;;;;;4989932;28;20477;-72
2023/04/03 12:08:40;;;;;;;5.37;3.20;;;7.10;59.20;;;;;;4984778;28;20198;-72
2023/04/03 12:11:08;;;;;;;4.10;2.67;;;7.20;59.10;;;;;;4992069;28;20434;-74
2023/04/03 12:13:38;;;;;;;5.30;3.27;;;7.10;59.70;;;;;;4987962;28;20467;-73
2023/04/03 12:16:23;;;;;;;4.90;3.30;;;7.10;60.40;;;;;;4992511;28;20852;-71
2023/04/03 12:18:48;;;;;;;5.50;3.47;;;6.90;61.20;;;;;;4989478;28;20430;-72
2023/04/03 12:21:18;;;;;;;5.00;3.20;;;6.70;61.70;;;;;;4990278;28;20428;-71
2023/04/03 12:24:09;;;;;;;5.30;2.90;;;6.80;60.60;;;;;;4988884;28;20591;-73
2023/04/03 12:26:41;;;;;;;4.73;3.23;;;6.60;60.60;;;;;;4994344;28;20423;-72
2023/04/03 12:29:32;;;;;;;4.60;3.00;;;6.70;61.20;;;;;;4993367;28;20785;-70
2023/04/03 12:32:07;;;;;;;10.77;3.03;;;6.80;60.90;;;;;;4991203;28;20425;-72
2023/04/03 12:34:57;;;;;;;5.83;3.00;;;7.00;60.70;;;;;;4988873;28;20540;-73
2023/04/03 12:38:10;;;;;;;4.70;2.87;;;7.10;59.70;;;;;;4993699;28;20790;-75
2023/04/03 12:40:41;;;;;;;5.40;2.77;;;7.10;59.60;;;;;;4986773;28;20428;-71
2023/04/03 12:43:17;;;;;;;6.50;3.00;;;7.20;59.20;;;;;;4987848;28;20469;-73
2023/04/03 12:46:07;;;;;;;7.07;3.17;;;7.00;59.50;;;;;;4991406;28;20475;-70
2023/04/03 12:48:50;;;;;;;4.73;3.00;;;7.00;59.50;;;;;;4992939;28;20432;-73
2023/04/03 12:51:40;;;;;;;5.57;3.50;;;7.10;59.30;;;;;;4995417;28;20428;-71
2023/04/03 12:54:32;;;;;;;5.83;2.60;;;7.10;58.70;;;;;;4982180;28;20469;-72
2023/04/03 12:57:16;;;;;;;4.60;2.60;;;7.10;59.10;;;;;;4991367;28;20929;-72
2023/04/03 12:59:45;;;;;;;13.43;4.33;;;6.90;58.20;;;;;;4991646;28;20501;-71
2023/04/03 13:02:23;;;;;;;3.90;2.60;;;6.90;58.80;;;;;;4986087;28;20945;-73
2023/04/03 13:04:50;;;;;;;3.90;2.63;;;7.00;58.80;;;;;;4989249;28;20481;-70
2023/04/03 13:07:31;;;;;;;8.23;2.90;;;7.10;58.80;;;;;;4991039;28;20462;-73
2023/04/03 13:10:21;;;;;;;5.53;3.43;;;7.40;58.50;;;;;;4991180;28;20433;-71
2023/04/03 13:12:50;;;;;;;6.07;2.90;;;7.70;56.90;;;;;;4982512;28;20461;-71
2023/04/03 13:15:22;;;;;;;5.30;2.90;;;7.90;55.40;;;;;;4991989;28;20422;-73
2023/04/03 13:17:51;;;;;;;5.13;3.20;;;8.00;55.30;;;;;;4993163;28;21300;-71